createdAt,value
2022-08-04T00:00:27.042Z,1005.35
2022-08-04T00:01:27.075Z,1005.37
2022-08-04T00:02:27.025Z,1005.35
2022-08-04T00:03:27.004Z,1005.33
2022-08-04T00:04:27.016Z,1005.35
2022-08-04T00:05:26.986Z,1005.33
2022-08-04T00:06:26.994Z,1005.31
2022-08-04T00:07:44.086Z,1005.33
2022-08-04T00:08:27.952Z,1005.33
2022-08-04T00:09:26.945Z,1005.36
2022-08-04T00:10:26.924Z,1005.30
2022-08-04T00:11:26.923Z,1005.32
2022-08-04T00:12:29.451Z,1005.33
2022-08-04T00:13:27.120Z,1005.29
2022-08-04T00:14:26.892Z,1005.29
2022-08-04T00:15:26.886Z,1005.28
2022-08-04T00:16:32.702Z,1005.28
2022-08-04T00:17:27.877Z,1005.27
2022-08-04T00:18:26.836Z,1005.28
2022-08-04T00:19:26.846Z,1005.28
2022-08-04T00:20:26.823Z,1005.31
2022-08-04T00:21:26.809Z,1005.30
2022-08-04T00:22:26.803Z,1005.30
2022-08-04T00:23:26.788Z,1005.26
2022-08-04T00:24:27.770Z,1005.28
2022-08-04T00:25:26.773Z,1005.24
2022-08-04T00:26:26.754Z,1005.28
2022-08-04T00:27:26.738Z,1005.27
2022-08-04T00:28:26.729Z,1005.26
2022-08-04T00:29:26.715Z,1005.25
2022-08-04T00:30:26.717Z,1005.26
2022-08-04T00:31:33.200Z,1005.26
2022-08-04T00:32:33.855Z,1005.27
2022-08-04T00:33:27.669Z,1005.27
2022-08-04T00:34:26.683Z,1005.26
2022-08-04T00:35:26.662Z,1005.24
2022-08-04T00:36:26.644Z,1005.23
2022-08-04T00:37:26.650Z,1005.27
2022-08-04T00:38:26.620Z,1005.28
2022-08-04T00:39:26.673Z,1005.29
2022-08-04T00:40:26.735Z,1005.31
2022-08-04T00:41:26.588Z,1005.27
2022-08-04T00:42:26.570Z,1005.31
2022-08-04T00:43:26.554Z,1005.30
2022-08-04T00:44:26.614Z,1005.28
2022-08-04T00:45:26.543Z,1005.34
2022-08-04T00:46:26.532Z,1005.33
2022-08-04T02:00:37.962Z,1005.02
2022-08-04T02:01:37.962Z,1004.96
2022-08-04T02:02:37.850Z,1005.00
2022-08-04T02:04:19.481Z,1004.97
2022-08-04T02:04:38.737Z,1004.99
2022-08-04T02:06:02.386Z,1004.93
2022-08-04T02:06:38.705Z,1004.96
2022-08-04T02:07:37.728Z,1004.92
2022-08-04T02:08:37.680Z,1004.92
2022-08-04T02:09:38.513Z,1004.87
2022-08-04T02:10:38.687Z,1004.91
2022-08-04T02:11:37.666Z,1004.90
2022-08-04T02:12:37.658Z,1004.86
2022-08-04T02:13:37.683Z,1004.89
2022-08-04T02:14:37.623Z,1004.87
2022-08-04T02:15:37.636Z,1004.86
2022-08-04T02:16:37.625Z,1004.84
2022-08-04T02:17:37.614Z,1004.84
2022-08-04T02:18:37.591Z,1004.83
2022-08-04T02:19:37.576Z,1004.85
2022-08-04T02:20:37.572Z,1004.81
2022-08-04T02:21:42.253Z,1004.84
2022-08-04T02:22:38.553Z,1004.79
2022-08-04T02:23:37.520Z,1004.82
2022-08-04T02:24:37.557Z,1004.79
2022-08-04T02:25:37.513Z,1004.79
2022-08-04T02:26:37.504Z,1004.80
2022-08-04T02:27:59.408Z,1004.79
2022-08-04T02:28:38.487Z,1004.75
2022-08-04T02:29:37.529Z,1004.77
2022-08-04T02:30:37.480Z,1004.77
2022-08-04T02:31:37.636Z,1004.77
2022-08-04T02:32:37.431Z,1004.80
2022-08-04T02:33:37.444Z,1004.77
2022-08-04T02:34:37.413Z,1004.76
2022-08-04T02:35:37.399Z,1004.72
2022-08-04T02:36:37.395Z,1004.74
2022-08-04T02:37:37.388Z,1004.72
2022-08-04T02:38:37.393Z,1004.71
2022-08-04T02:39:48.502Z,1004.72
2022-08-04T02:40:38.357Z,1004.70
2022-08-04T02:41:37.371Z,1004.67
2022-08-04T02:42:37.347Z,1004.67
2022-08-04T02:43:50.876Z,1004.66
2022-08-04T02:44:38.307Z,1004.61
2022-08-04T02:45:37.408Z,1004.65
2022-08-04T02:46:37.317Z,1004.61
2022-08-04T02:48:30.734Z,1004.60
2022-08-04T02:48:38.313Z,1004.59
2022-08-04T02:49:37.259Z,1004.57
2022-08-04T02:50:37.245Z,1004.58
2022-08-04T02:51:37.229Z,1004.58
2022-08-04T02:52:37.233Z,1004.55
2022-08-04T02:53:37.223Z,1004.56
2022-08-04T02:54:37.209Z,1004.54
2022-08-04T02:55:37.191Z,1004.55
2022-08-04T02:56:37.484Z,1004.52
2022-08-04T02:57:37.153Z,1004.55
2022-08-04T02:58:37.170Z,1004.56
2022-08-04T02:59:37.146Z,1004.53
2022-08-04T03:00:37.148Z,1004.49
2022-08-04T03:01:37.150Z,1004.52
2022-08-04T03:02:37.305Z,1004.52
2022-08-04T03:03:37.099Z,1004.50
2022-08-04T03:04:37.090Z,1004.50
2022-08-04T03:06:00.679Z,1004.48
2022-08-04T03:06:38.065Z,1004.46
2022-08-04T03:07:37.056Z,1004.46
2022-08-04T03:08:37.036Z,1004.46
2022-08-04T03:09:37.104Z,1004.41
2022-08-04T03:10:37.048Z,1004.44
2022-08-04T03:11:37.018Z,1004.42
2022-08-04T03:12:37.033Z,1004.40
2022-08-04T03:13:37.021Z,1004.38
2022-08-04T03:14:36.994Z,1004.43
2022-08-04T03:15:36.968Z,1004.39
2022-08-04T03:16:38.837Z,1004.42
2022-08-04T03:17:36.965Z,1004.40
2022-08-04T03:18:37.941Z,1004.44
2022-08-04T03:19:36.927Z,1004.44
2022-08-04T03:20:36.908Z,1004.45
2022-08-04T03:21:36.915Z,1004.44
2022-08-04T03:22:41.938Z,1004.36
2022-08-04T03:23:37.922Z,1004.34
2022-08-04T03:24:36.878Z,1004.43
2022-08-04T03:25:36.859Z,1004.41
2022-08-04T03:26:37.858Z,1004.37
2022-08-04T03:27:36.834Z,1004.44
2022-08-04T03:28:36.842Z,1004.44
2022-08-04T03:29:37.523Z,1004.43
2022-08-04T03:30:36.826Z,1004.41
2022-08-04T03:31:36.798Z,1004.43
2022-08-04T03:32:36.777Z,1004.43
2022-08-04T03:33:36.848Z,1004.43
2022-08-04T03:34:36.780Z,1004.39
2022-08-04T03:35:36.750Z,1004.42
2022-08-04T03:36:36.730Z,1004.40
2022-08-04T03:37:36.732Z,1004.38
2022-08-04T03:38:36.744Z,1004.39
2022-08-04T03:39:36.939Z,1004.37
2022-08-04T03:40:36.738Z,1004.36
2022-08-04T03:41:54.961Z,1004.38
2022-08-04T03:42:37.686Z,1004.38
2022-08-04T03:43:59.262Z,1004.36
2022-08-04T03:44:37.652Z,1004.35
2022-08-04T03:45:36.686Z,1004.35
2022-08-04T03:46:36.666Z,1004.35
2022-08-04T03:47:44.246Z,1004.35
2022-08-04T03:48:37.663Z,1004.37
2022-08-04T03:49:36.598Z,1004.39
2022-08-04T03:50:41.191Z,1004.38
2022-08-04T03:51:36.684Z,1004.33
2022-08-04T03:52:36.564Z,1004.33
2022-08-04T03:53:36.555Z,1004.30
2022-08-04T03:54:36.560Z,1004.35
2022-08-04T03:55:36.542Z,1004.34
2022-08-04T03:56:36.523Z,1004.30
2022-08-04T03:57:36.499Z,1004.28
2022-08-04T03:58:36.496Z,1004.27
2022-08-04T03:59:36.497Z,1004.31
2022-08-04T04:00:36.478Z,1004.30
2022-08-04T04:02:01.474Z,1004.21
2022-08-04T04:02:37.513Z,1004.25
2022-08-04T04:03:36.450Z,1004.20
2022-08-04T04:04:36.478Z,1004.23
2022-08-04T04:05:58.995Z,1004.16
2022-08-04T04:06:37.555Z,1004.25
2022-08-04T04:07:36.701Z,1004.21
2022-08-04T04:08:36.411Z,1004.23
2022-08-04T04:09:51.613Z,1004.21
2022-08-04T04:10:37.399Z,1004.20
2022-08-04T04:11:57.316Z,1004.20
2022-08-04T04:12:37.358Z,1004.18
2022-08-04T04:13:36.347Z,1004.14
2022-08-04T04:14:36.338Z,1004.18
2022-08-04T04:15:36.365Z,1004.15
2022-08-04T04:16:36.310Z,1004.15
2022-08-04T04:17:36.291Z,1004.17
2022-08-04T04:18:36.272Z,1004.15
2022-08-04T04:19:36.246Z,1004.15
2022-08-04T04:20:36.259Z,1004.17
2022-08-04T04:21:36.260Z,1004.17
2022-08-04T04:22:38.434Z,1004.16
2022-08-04T04:23:36.229Z,1004.19
2022-08-04T04:24:36.191Z,1004.22
2022-08-04T04:25:36.225Z,1004.18
2022-08-04T04:26:36.207Z,1004.18
2022-08-04T04:27:36.183Z,1004.19
2022-08-04T04:28:44.692Z,1004.16
2022-08-04T04:29:37.192Z,1004.14
2022-08-04T04:30:36.153Z,1004.19
2022-08-04T04:31:36.144Z,1004.21
2022-08-04T04:32:36.153Z,1004.16
2022-08-04T04:33:36.114Z,1004.18
2022-08-04T04:34:36.104Z,1004.16
2022-08-04T04:35:37.059Z,1004.20
2022-08-04T04:36:36.097Z,1004.23
2022-08-04T04:37:36.086Z,1004.21
2022-08-04T04:38:36.050Z,1004.18
2022-08-04T04:39:36.166Z,1004.12
2022-08-04T04:40:36.051Z,1004.21
2022-08-04T04:41:36.027Z,1004.15
2022-08-04T04:42:36.029Z,1004.17
2022-08-04T04:43:50.953Z,1004.19
2022-08-04T04:44:37.013Z,1004.19
2022-08-04T04:45:36.002Z,1004.18
2022-08-04T04:46:35.992Z,1004.21
2022-08-04T04:48:07.067Z,1004.16
2022-08-04T04:48:36.989Z,1004.21
2022-08-04T04:49:35.931Z,1004.18
2022-08-04T04:50:37.012Z,1004.17
2022-08-04T04:51:35.924Z,1004.16
2022-08-04T04:52:35.915Z,1004.14
2022-08-04T04:53:35.893Z,1004.11
2022-08-04T04:54:35.902Z,1004.11
2022-08-04T04:55:35.867Z,1004.14
2022-08-04T04:56:35.868Z,1004.11
2022-08-04T04:57:53.951Z,1004.08
2022-08-04T04:58:36.839Z,1004.11
2022-08-04T04:59:35.827Z,1004.09
2022-08-04T05:00:35.844Z,1004.07
2022-08-04T05:01:35.819Z,1004.07
2022-08-04T05:02:35.805Z,1004.08
2022-08-04T05:03:35.801Z,1004.07
2022-08-04T05:04:35.800Z,1004.09
2022-08-04T05:05:35.855Z,1004.05
2022-08-04T05:06:35.920Z,1004.02
2022-08-04T05:07:36.774Z,1004.02
2022-08-04T05:08:43.028Z,1004.03
2022-08-04T05:09:36.737Z,1004.02
2022-08-04T05:10:35.764Z,1004.04
2022-08-04T05:11:35.821Z,1004.01
2022-08-04T05:14:32.521Z,1004.02
2022-08-04T05:14:36.438Z,1004.03
2022-08-04T05:14:41.645Z,1004.07
2022-08-04T05:15:36.815Z,1004.03
2022-08-04T05:16:35.769Z,1004.01
2022-08-04T05:17:35.778Z,1003.97
2022-08-04T05:18:35.735Z,1003.99
2022-08-04T05:19:35.624Z,1003.97
2022-08-04T05:20:35.731Z,1003.99
2022-08-04T05:21:35.611Z,1003.97
2022-08-04T05:22:36.363Z,1003.98
2022-08-04T05:23:35.807Z,1003.98
2022-08-04T05:24:35.735Z,1003.97
2022-08-04T05:25:35.762Z,1003.94
2022-08-04T05:26:35.854Z,1003.94
2022-08-04T05:27:39.806Z,1003.95
2022-08-04T05:28:35.741Z,1003.95
2022-08-04T05:29:36.131Z,1003.96
2022-08-04T05:30:35.642Z,1003.96
2022-08-04T05:31:35.583Z,1003.96
2022-08-04T05:32:35.539Z,1003.97
2022-08-04T05:33:35.519Z,1003.98
2022-08-04T05:34:35.747Z,1004.00
2022-08-04T05:35:53.974Z,1004.02
2022-08-04T05:36:41.470Z,1004.03
2022-08-04T05:37:36.548Z,1004.01
2022-08-04T05:38:35.632Z,1004.01
2022-08-04T05:39:35.489Z,1003.97
2022-08-04T05:40:35.483Z,1003.99
2022-08-04T05:41:45.171Z,1003.99
2022-08-04T05:42:36.533Z,1003.98
2022-08-04T05:43:35.453Z,1003.91
2022-08-04T05:44:35.729Z,1003.91
2022-08-04T05:45:39.267Z,1003.92
2022-08-04T05:46:35.388Z,1003.95
2022-08-04T05:47:35.339Z,1003.92
2022-08-04T05:48:35.331Z,1003.89
2022-08-04T05:49:35.323Z,1003.95
2022-08-04T05:50:35.353Z,1003.92
2022-08-04T05:51:35.497Z,1003.87
2022-08-04T05:52:35.275Z,1003.86
2022-08-04T05:53:35.261Z,1003.87
2022-08-04T05:54:35.262Z,1003.91
2022-08-04T05:55:57.091Z,1003.88
2022-08-04T05:56:36.344Z,1003.93
2022-08-04T05:57:35.311Z,1003.90
2022-08-04T05:58:35.232Z,1003.97
2022-08-04T05:59:35.177Z,1003.91
2022-08-04T06:00:41.166Z,1003.91
2022-08-04T06:01:54.970Z,1003.89
2022-08-04T06:02:36.194Z,1003.87
2022-08-04T06:03:35.189Z,1003.88
2022-08-04T06:04:35.179Z,1003.89
2022-08-04T06:05:35.497Z,1003.81
2022-08-04T06:06:35.212Z,1003.78
2022-08-04T06:07:35.547Z,1003.77
2022-08-04T06:08:36.344Z,1003.79
2022-08-04T06:09:35.175Z,1003.77
2022-08-04T06:10:35.085Z,1003.79
2022-08-04T06:12:03.168Z,1003.78
2022-08-04T06:12:36.085Z,1003.78
2022-08-04T06:13:49.610Z,1003.78
2022-08-04T06:14:36.077Z,1003.75
2022-08-04T06:15:35.041Z,1003.75
2022-08-04T06:16:35.039Z,1003.76
2022-08-04T06:19:56.105Z,1003.74
2022-08-04T06:19:59.695Z,1003.77
2022-08-04T06:19:59.745Z,1003.74
2022-08-04T06:20:35.969Z,1003.77
2022-08-04T06:21:35.033Z,1003.73
2022-08-04T06:22:35.049Z,1003.74
2022-08-04T06:23:35.065Z,1003.73
2022-08-04T06:24:36.004Z,1003.71
2022-08-04T06:25:35.092Z,1003.70
2022-08-04T06:26:35.259Z,1003.73
2022-08-04T06:27:35.177Z,1003.71
2022-08-04T06:28:35.359Z,1003.72
2022-08-04T06:29:34.942Z,1003.70
2022-08-04T06:30:34.971Z,1003.71
2022-08-04T06:32:31.616Z,1003.70
2022-08-04T06:32:41.294Z,1003.71
2022-08-04T06:33:54.664Z,1003.71
2022-08-04T06:34:35.931Z,1003.75
2022-08-04T06:35:34.901Z,1003.70
2022-08-04T06:36:34.991Z,1003.72
2022-08-04T06:37:42.718Z,1003.69
2022-08-04T06:38:36.082Z,1003.73
2022-08-04T06:39:34.929Z,1003.72
2022-08-04T06:40:35.070Z,1003.72
2022-08-04T06:41:34.977Z,1003.70
2022-08-04T06:42:34.877Z,1003.73
2022-08-04T06:43:42.922Z,1003.73
2022-08-04T06:44:35.868Z,1003.73
2022-08-04T06:45:35.101Z,1003.73
2022-08-04T06:46:34.944Z,1003.73
2022-08-04T06:47:34.832Z,1003.67
2022-08-04T06:48:34.814Z,1003.67
2022-08-04T06:49:55.239Z,1003.72
2022-08-04T06:51:31.860Z,1003.69
2022-08-04T06:51:43.697Z,1003.68
2022-08-04T06:52:35.781Z,1003.67
2022-08-04T06:53:34.736Z,1003.68
2022-08-04T06:54:34.720Z,1003.64
2022-08-04T06:55:34.665Z,1003.64
2022-08-04T06:56:34.663Z,1003.65
2022-08-04T06:57:34.868Z,1003.66
2022-08-04T06:58:34.668Z,1003.63
2022-08-04T06:59:34.711Z,1003.67
2022-08-04T07:00:34.799Z,1003.64
2022-08-04T07:01:34.705Z,1003.61
2022-08-04T07:02:34.786Z,1003.62
2022-08-04T07:03:34.634Z,1003.63
2022-08-04T07:04:34.741Z,1003.61
2022-08-04T07:05:34.676Z,1003.60
2022-08-04T07:06:34.681Z,1003.60
2022-08-04T07:07:57.697Z,1003.60
2022-08-04T07:08:35.717Z,1003.53
2022-08-04T07:09:34.567Z,1003.55
2022-08-04T07:10:34.741Z,1003.56
2022-08-04T07:11:39.218Z,1003.55
2022-08-04T07:12:35.613Z,1003.55
2022-08-04T07:13:34.843Z,1003.55
2022-08-04T07:14:34.572Z,1003.51
2022-08-04T07:15:34.548Z,1003.55
2022-08-04T07:16:34.650Z,1003.52
2022-08-04T07:17:34.655Z,1003.52
2022-08-04T07:18:34.367Z,1003.53
2022-08-04T07:19:34.346Z,1003.50
2022-08-04T07:20:36.776Z,1003.50
2022-08-04T07:21:34.473Z,1003.49
2022-08-04T07:22:34.415Z,1003.44
2022-08-04T07:23:34.412Z,1003.43
2022-08-04T07:24:35.213Z,1003.44
2022-08-04T07:26:11.085Z,1003.41
2022-08-04T07:26:35.495Z,1003.42
2022-08-04T07:27:48.217Z,1003.40
2022-08-04T07:28:35.301Z,1003.38
2022-08-04T07:29:34.626Z,1003.38
2022-08-04T07:30:34.320Z,1003.35
2022-08-04T07:31:36.039Z,1003.38
2022-08-04T07:32:34.277Z,1003.37
2022-08-04T07:33:34.237Z,1003.39
2022-08-04T07:34:34.274Z,1003.38
2022-08-04T07:36:09.501Z,1003.41
2022-08-04T07:36:41.998Z,1003.34
2022-08-04T07:37:39.081Z,1003.36
2022-08-04T07:38:37.564Z,1003.36
2022-08-04T07:39:47.850Z,1003.37
2022-08-04T07:40:35.370Z,1003.37
2022-08-04T07:41:36.238Z,1003.33
2022-08-04T07:42:34.605Z,1003.34
2022-08-04T07:43:34.401Z,1003.39
2022-08-04T07:44:34.144Z,1003.38
2022-08-04T07:45:34.115Z,1003.36
2022-08-04T07:46:34.461Z,1003.39
2022-08-04T07:47:34.451Z,1003.37
2022-08-04T07:48:34.182Z,1003.37
2022-08-04T07:49:55.823Z,1003.36
2022-08-04T07:50:35.054Z,1003.38
2022-08-04T07:51:34.042Z,1003.36
2022-08-04T07:52:39.526Z,1003.36
2022-08-04T07:53:54.144Z,1003.35
2022-08-04T07:54:36.077Z,1003.37
2022-08-04T07:55:34.843Z,1003.36
2022-08-04T07:56:34.433Z,1003.39
2022-08-04T07:57:41.359Z,1003.38
2022-08-04T07:58:34.952Z,1003.40
2022-08-04T07:59:34.914Z,1003.43
2022-08-04T08:00:34.103Z,1003.34
2022-08-04T08:01:33.992Z,1003.38
2022-08-04T08:02:34.121Z,1003.38
2022-08-04T08:03:33.991Z,1003.40
2022-08-04T08:04:33.944Z,1003.36
2022-08-04T08:05:33.892Z,1003.35
2022-08-04T08:06:39.791Z,1003.35
2022-08-04T08:08:29.002Z,1003.33
2022-08-04T08:09:28.995Z,1003.35
2022-08-04T08:10:31.154Z,1003.34
2022-08-04T08:12:35.187Z,1003.30
2022-08-04T08:12:36.407Z,1003.31
2022-08-04T08:13:33.172Z,1003.31
2022-08-04T08:14:28.939Z,1003.31
2022-08-04T08:15:28.930Z,1003.33
2022-08-04T08:16:28.926Z,1003.32
2022-08-04T08:17:28.930Z,1003.32
2022-08-04T08:18:28.894Z,1003.29
2022-08-04T08:19:28.885Z,1003.26
2022-08-04T08:20:31.338Z,1003.27
2022-08-04T08:21:28.872Z,1003.23
2022-08-04T08:22:28.848Z,1003.24
2022-08-04T08:23:29.006Z,1003.23
2022-08-04T08:24:28.834Z,1003.23
2022-08-04T08:25:28.817Z,1003.24
2022-08-04T08:26:28.812Z,1003.15
2022-08-04T08:27:28.799Z,1003.15
2022-08-04T08:28:29.106Z,1003.14
2022-08-04T08:29:28.791Z,1003.14
2022-08-04T08:30:31.721Z,1003.16
2022-08-04T08:31:57.596Z,1003.14
2022-08-04T08:32:29.747Z,1003.14
2022-08-04T08:33:28.771Z,1003.15
2022-08-04T08:34:29.099Z,1003.13
2022-08-04T08:35:28.712Z,1003.12
2022-08-04T08:36:28.713Z,1003.06
2022-08-04T08:37:28.689Z,1003.07
2022-08-04T08:38:28.697Z,1003.06
2022-08-04T08:39:28.716Z,1003.09
2022-08-04T08:40:39.261Z,1003.10
2022-08-04T08:41:29.794Z,1003.09
2022-08-04T08:42:28.642Z,1003.11
2022-08-04T08:44:03.780Z,1003.11
2022-08-04T08:44:30.015Z,1003.10
2022-08-04T08:45:29.600Z,1003.11
2022-08-04T08:46:48.140Z,1003.12
2022-08-04T08:47:29.597Z,1003.08
2022-08-04T08:48:29.659Z,1003.08
2022-08-04T08:50:01.873Z,1003.08
2022-08-04T08:50:29.546Z,1003.09
2022-08-04T08:51:28.572Z,1003.03
2022-08-04T08:53:01.504Z,1003.04
2022-08-04T08:53:29.540Z,1003.07
2022-08-04T08:54:28.650Z,1003.06
2022-08-04T08:55:28.509Z,1003.07
2022-08-04T08:56:31.415Z,1003.06
2022-08-04T08:57:28.487Z,1003.06
2022-08-04T08:58:28.521Z,1003.08
2022-08-04T08:59:28.492Z,1003.06
2022-08-04T09:00:31.747Z,1003.05
2022-08-04T09:01:28.473Z,1003.05
2022-08-04T09:02:28.426Z,1003.04
2022-08-04T09:03:28.426Z,1003.05
2022-08-04T09:04:31.992Z,1003.05
2022-08-04T09:05:28.431Z,1003.01
2022-08-04T09:06:28.396Z,1003.04
2022-08-04T09:07:28.383Z,1003.00
2022-08-04T09:08:28.358Z,1003.03
2022-08-04T09:09:28.355Z,1003.00
2022-08-04T09:10:33.057Z,1003.01
2022-08-04T09:11:29.333Z,1003.01
2022-08-04T09:12:28.562Z,1002.99
2022-08-04T09:13:28.301Z,1003.01
2022-08-04T09:14:28.310Z,1002.99
2022-08-04T09:15:28.291Z,1002.97
2022-08-04T09:16:28.287Z,1002.98
2022-08-04T09:17:28.287Z,1002.98
2022-08-04T09:18:28.250Z,1002.99
2022-08-04T09:19:38.790Z,1002.98
2022-08-04T09:20:29.240Z,1003.01
2022-08-04T09:21:28.238Z,1003.04
2022-08-04T09:22:28.209Z,1002.99
2022-08-04T09:23:28.219Z,1002.98
2022-08-04T09:24:35.241Z,1002.96
2022-08-04T09:25:29.190Z,1003.01
2022-08-04T09:26:28.178Z,1002.99
2022-08-04T09:27:28.189Z,1003.00
2022-08-04T09:28:52.096Z,1002.99
2022-08-04T09:29:29.134Z,1003.01
2022-08-04T09:30:28.148Z,1003.02
2022-08-04T09:31:28.119Z,1003.04
2022-08-04T09:32:29.113Z,1003.05
2022-08-04T09:33:44.897Z,1003.06
2022-08-04T09:34:29.106Z,1003.04
2022-08-04T09:35:28.074Z,1002.96
2022-08-04T09:36:28.109Z,1002.94
2022-08-04T09:37:28.076Z,1002.99
2022-08-04T09:38:28.074Z,1003.04
2022-08-04T09:39:28.067Z,1003.04
2022-08-04T09:40:31.296Z,1003.02
2022-08-04T09:41:48.801Z,1003.03
2022-08-04T09:42:30.268Z,1003.04
2022-08-04T09:43:28.099Z,1003.09
2022-08-04T09:44:51.183Z,1002.99
2022-08-04T09:45:42.537Z,1002.98
2022-08-04T09:46:28.961Z,1003.02
2022-08-04T09:47:39.797Z,1002.95
2022-08-04T09:48:28.946Z,1002.96
2022-08-04T09:49:27.928Z,1002.98
2022-08-04T09:50:27.925Z,1003.00
2022-08-04T09:51:57.495Z,1002.98
2022-08-04T09:52:28.902Z,1002.97
2022-08-04T09:53:27.885Z,1002.98
2022-08-04T09:54:30.175Z,1003.06
2022-08-04T09:55:27.997Z,1002.98
2022-08-04T09:56:27.862Z,1002.94
2022-08-04T09:57:27.847Z,1002.92
2022-08-04T09:58:27.843Z,1002.95
2022-08-04T09:59:27.839Z,1002.95
2022-08-04T10:00:40.988Z,1002.95
2022-08-04T10:01:28.820Z,1002.91
2022-08-04T10:02:27.798Z,1002.91
2022-08-04T10:03:27.850Z,1002.96
2022-08-04T10:04:27.777Z,1002.93
2022-08-04T10:05:27.777Z,1002.92
2022-08-04T10:06:27.757Z,1002.92
2022-08-04T10:07:27.765Z,1002.90
2022-08-04T10:08:27.746Z,1002.87
2022-08-04T10:09:27.722Z,1002.88
2022-08-04T10:10:27.717Z,1002.91
2022-08-04T10:11:27.706Z,1002.91
2022-08-04T10:12:27.699Z,1002.94
2022-08-04T10:13:28.609Z,1002.89
2022-08-04T10:14:27.730Z,1002.91
2022-08-04T10:15:27.674Z,1002.95
2022-08-04T10:16:27.683Z,1002.93
2022-08-04T10:17:27.640Z,1002.92
2022-08-04T10:18:27.631Z,1002.91
2022-08-04T10:19:27.613Z,1002.91
2022-08-04T10:20:44.753Z,1002.86
2022-08-04T10:21:28.602Z,1002.84
2022-08-04T10:22:29.754Z,1002.91
2022-08-04T10:23:27.592Z,1002.84
2022-08-04T10:24:27.986Z,1002.83
2022-08-04T10:25:37.700Z,1002.89
2022-08-04T10:26:28.564Z,1002.90
2022-08-04T10:27:27.550Z,1002.86
2022-08-04T10:28:27.527Z,1002.83
2022-08-04T10:29:27.519Z,1002.84
2022-08-04T10:30:27.514Z,1002.79
2022-08-04T10:31:27.495Z,1002.83
2022-08-04T10:32:27.492Z,1002.81
2022-08-04T10:33:27.493Z,1002.78
2022-08-04T10:34:27.470Z,1002.86
2022-08-04T10:35:27.504Z,1002.79
2022-08-04T10:36:27.448Z,1002.80
2022-08-04T10:37:59.266Z,1002.75
2022-08-04T10:38:28.436Z,1002.76
2022-08-04T10:39:43.539Z,1002.74
2022-08-04T10:40:28.584Z,1002.79
2022-08-04T10:41:27.392Z,1002.78
2022-08-04T10:42:27.384Z,1002.74
2022-08-04T10:43:27.373Z,1002.80
2022-08-04T10:44:27.441Z,1002.79
2022-08-04T10:45:27.381Z,1002.70
2022-08-04T10:46:27.357Z,1002.68
2022-08-04T10:47:27.338Z,1002.66
2022-08-04T10:48:34.220Z,1002.66
2022-08-04T10:49:28.318Z,1002.71
2022-08-04T10:50:27.301Z,1002.70
2022-08-04T10:51:27.306Z,1002.66
2022-08-04T10:52:27.283Z,1002.77
2022-08-04T10:53:27.275Z,1002.61
2022-08-04T10:54:27.255Z,1002.64
2022-08-04T10:56:06.814Z,1002.63
2022-08-04T10:56:28.288Z,1002.68
2022-08-04T10:57:27.230Z,1002.62
2022-08-04T10:58:47.357Z,1002.65
2022-08-04T10:59:28.224Z,1002.63
2022-08-04T11:00:27.209Z,1002.59
2022-08-04T11:02:00.780Z,1002.57
2022-08-04T11:02:28.251Z,1002.60
2022-08-04T11:03:27.234Z,1002.60
2022-08-04T11:04:28.036Z,1002.65
2022-08-04T11:05:27.149Z,1002.55
2022-08-04T11:06:27.170Z,1002.67
2022-08-04T11:07:27.141Z,1002.65
2022-08-04T11:08:27.111Z,1002.57
2022-08-04T11:09:27.128Z,1002.60
2022-08-04T11:10:27.104Z,1002.55
2022-08-04T11:11:27.195Z,1002.53
2022-08-04T11:12:27.101Z,1002.50
2022-08-04T11:13:30.396Z,1002.52
2022-08-04T11:14:27.079Z,1002.52
2022-08-04T11:15:27.301Z,1002.51
2022-08-04T11:16:27.060Z,1002.53
2022-08-04T11:17:27.096Z,1002.50
2022-08-04T11:18:27.028Z,1002.49
2022-08-04T11:19:45.284Z,1002.51
2022-08-04T11:20:36.406Z,1002.57
2022-08-04T11:21:28.035Z,1002.61
2022-08-04T11:22:26.999Z,1002.44
2022-08-04T11:23:26.973Z,1002.48
2022-08-04T11:24:26.981Z,1002.46
2022-08-04T11:25:26.967Z,1002.48
2022-08-04T11:26:26.972Z,1002.47
2022-08-04T11:27:26.963Z,1002.42
2022-08-04T11:28:30.281Z,1002.45
2022-08-04T11:29:26.951Z,1002.48
2022-08-04T11:30:26.935Z,1002.50
2022-08-04T11:31:26.903Z,1002.50
2022-08-04T11:32:26.898Z,1002.46
2022-08-04T11:33:26.899Z,1002.42
2022-08-04T11:34:26.890Z,1002.45
2022-08-04T11:35:26.856Z,1002.44
2022-08-04T11:36:26.863Z,1002.39
2022-08-04T11:37:27.046Z,1002.45
2022-08-04T11:38:31.913Z,1002.43
2022-08-04T11:39:27.892Z,1002.41
2022-08-04T11:40:26.817Z,1002.42
2022-08-04T11:41:26.818Z,1002.40
2022-08-04T11:42:26.806Z,1002.39
2022-08-04T11:44:00.714Z,1002.41
2022-08-04T11:44:27.790Z,1002.37
2022-08-04T11:45:26.770Z,1002.42
2022-08-04T11:46:26.832Z,1002.40
2022-08-04T11:47:26.744Z,1002.40
2022-08-04T11:48:26.742Z,1002.39
2022-08-04T11:49:26.737Z,1002.31
2022-08-04T11:50:26.723Z,1002.34
2022-08-04T11:51:26.715Z,1002.33
2022-08-04T11:52:26.700Z,1002.47
2022-08-04T11:53:26.712Z,1002.40
2022-08-04T11:54:27.919Z,1002.35
2022-08-04T11:55:26.679Z,1002.39
2022-08-04T11:56:37.143Z,1002.42
2022-08-04T11:57:35.342Z,1002.45
2022-08-04T11:58:27.645Z,1002.49
2022-08-04T11:59:26.639Z,1002.44
2022-08-04T12:00:26.625Z,1002.56
2022-08-04T12:01:26.626Z,1002.53
2022-08-04T12:02:26.711Z,1002.51
2022-08-04T12:03:26.589Z,1002.52
2022-08-04T12:04:26.614Z,1002.60
2022-08-04T12:05:35.930Z,1002.60
2022-08-04T12:06:27.560Z,1002.53
2022-08-04T12:07:40.606Z,1002.55
2022-08-04T12:08:27.551Z,1002.49
2022-08-04T12:09:26.546Z,1002.63
2022-08-04T12:10:40.889Z,1002.67
2022-08-04T12:11:27.550Z,1002.67
2022-08-04T12:12:26.509Z,1002.61
2022-08-04T12:13:26.777Z,1002.57
2022-08-04T12:14:26.495Z,1002.72
2022-08-04T12:15:26.482Z,1002.62
2022-08-04T12:16:30.196Z,1002.63
2022-08-04T12:17:26.569Z,1002.58
2022-08-04T12:18:27.460Z,1002.63
2022-08-04T12:19:26.446Z,1002.66
2022-08-04T12:20:38.224Z,1002.51
2022-08-04T12:21:27.405Z,1002.65
2022-08-04T12:22:31.303Z,1002.65
2022-08-04T12:23:27.402Z,1002.73
2022-08-04T12:24:26.391Z,1002.70
2022-08-04T12:25:26.383Z,1002.72
2022-08-04T12:26:26.385Z,1002.64
2022-08-04T12:27:30.664Z,1002.67
2022-08-04T12:28:26.349Z,1002.62
2022-08-04T12:29:26.337Z,1002.59
2022-08-04T12:30:57.867Z,1002.57
2022-08-04T12:31:27.328Z,1002.75
2022-08-04T12:32:26.300Z,1002.55
2022-08-04T12:33:41.605Z,1002.51
2022-08-04T12:34:29.883Z,1002.43
2022-08-04T12:35:26.268Z,1002.36
2022-08-04T12:36:26.269Z,1002.49
2022-08-04T12:37:26.260Z,1002.60
2022-08-04T12:38:26.247Z,1002.42
2022-08-04T12:39:26.330Z,1002.45
2022-08-04T12:40:29.830Z,1002.37
2022-08-04T12:41:27.181Z,1002.41
2022-08-04T12:42:26.227Z,1002.36
2022-08-04T12:43:26.195Z,1002.34
2022-08-04T12:44:37.414Z,1002.36
2022-08-04T12:45:27.212Z,1002.33
2022-08-04T12:46:26.171Z,1002.44
2022-08-04T12:47:29.071Z,1002.54
2022-08-04T12:48:26.339Z,1002.45
2022-08-04T12:49:26.139Z,1002.36
2022-08-04T12:50:26.141Z,1002.32
2022-08-04T12:52:06.582Z,1002.36
2022-08-04T12:52:45.063Z,1002.25
2022-08-04T12:53:31.891Z,1002.25
2022-08-04T12:54:29.147Z,1002.32
2022-08-04T12:55:26.337Z,1002.17
2022-08-04T12:56:26.072Z,1002.25
2022-08-04T12:57:26.072Z,1002.31
2022-08-04T12:58:43.222Z,1002.31
2022-08-04T12:59:27.037Z,1002.53
2022-08-04T13:00:29.769Z,1002.47
2022-08-04T13:02:08.821Z,1002.14
2022-08-04T13:02:27.071Z,1002.22
2022-08-04T13:03:26.035Z,1002.19
2022-08-04T13:04:29.234Z,1002.25
2022-08-04T13:05:26.004Z,1002.28
2022-08-04T13:06:25.967Z,1002.25
2022-08-04T13:07:26.005Z,1002.17
2022-08-04T13:08:25.965Z,1002.25
2022-08-04T13:09:25.997Z,1002.25
2022-08-04T13:10:29.973Z,1002.29
2022-08-04T13:11:25.918Z,1002.30
2022-08-04T13:12:31.888Z,1002.20
2022-08-04T13:13:26.901Z,1002.43
2022-08-04T13:14:27.420Z,1002.30
2022-08-04T13:15:25.883Z,1002.37
2022-08-04T13:16:25.874Z,1002.32
2022-08-04T13:17:27.993Z,1002.35
2022-08-04T13:18:29.557Z,1002.44
2022-08-04T13:19:26.324Z,1002.31